Artesian, Iowa
Current Conditions -  °F | °C
As of 2:35 AM on Monday 24 Nov 2014 (Local Time) from KALO Reporting Station
Light Snow Light Snow  
Wind Chill: 19°   Ceiling: 1100
Heat Index: 30°   Visibility: 2.5mi
Dew Point: 29°   Wind: 15mph
Humidity: 96%   Direction: 300°WNW
Pressure: 29.28"   Gusts: 32mph
Location:  42.787°N, 92.4284°W
Report Text: KALO 240835Z AUTO 30013G28KT 2 1/2SM -SN BR OVC011 M01/M02 A2928 RMK AO2 PK WND 30029/0823 P0002 T10111017 $
Loading
Personal Weather Stations






























Interactive Weather Map New forecast layout! Learn more

10-Day Weather Forecast

Advertisements
Track Severe Weather on mobile